Time;durP1;ratioP1;P1;durP2;ratioP2;P2;SDS_P1;SDS_P2;PMS_P1;PMS_P2;Temp;Humidity;BMP_temperature;BMP_pressure;BME280_temperature;BME280_humidity;BME280_pressure;Samples;Min_cycle;Max_cycle;Signal;HPM_P1;HPM_P2
2021/04/02 00:00:59;;;;;;;6.20;1.90;;;23.20;99.90;;;;;;5057613;28;20180;-71
2021/04/02 00:03:34;;;;;;;4.00;1.50;;;23.30;99.90;;;;;;5058521;28;20183;-71
2021/04/02 00:06:05;;;;;;;5.43;1.80;;;23.40;99.90;;;;;;5057165;28;20215;-70
2021/04/02 00:08:33;;;;;;;3.87;1.20;;;23.50;99.90;;;;;;5054796;28;20309;-71
2021/04/02 00:11:11;;;;;;;4.77;1.40;;;23.30;99.90;;;;;;5055964;28;20180;-72
2021/04/02 00:13:44;;;;;;;7.10;1.40;;;23.40;99.90;;;;;;5056212;28;20649;-72
2021/04/02 00:16:13;;;;;;;4.50;1.60;;;23.30;99.90;;;;;;5053547;28;20215;-71
2021/04/02 00:18:41;;;;;;;5.33;1.90;;;23.60;99.90;;;;;;5048969;28;20645;-71
2021/04/02 00:21:11;;;;;;;4.93;1.60;;;23.70;99.90;;;;;;5054960;28;20254;-72
2021/04/02 00:23:39;;;;;;;3.80;1.50;;;24.00;99.90;;;;;;5057588;28;20584;-72
2021/04/02 00:26:12;;;;;;;3.67;1.60;;;24.40;99.90;;;;;;5046332;28;20636;-70
2021/04/02 00:28:40;;;;;;;5.93;1.67;;;24.70;99.90;;;;;;5050637;28;20180;-71
2021/04/02 00:31:07;;;;;;;2.80;1.37;;;24.90;99.90;;;;;;5055079;28;20688;-70
2021/04/02 00:33:35;;;;;;;3.97;1.57;;;25.00;99.90;;;;;;5056967;28;20573;-70
2021/04/02 00:36:05;;;;;;;5.63;1.80;;;24.90;99.90;;;;;;5055979;28;20200;-71
2021/04/02 00:38:33;;;;;;;5.63;1.60;;;25.10;99.90;;;;;;5047924;28;20184;-71
2021/04/02 00:41:10;;;;;;;4.23;1.60;;;25.00;99.90;;;;;;5058033;28;20184;-70
2021/04/02 00:43:39;;;;;;;5.67;1.80;;;24.70;99.90;;;;;;5055374;28;20187;-71
2021/04/02 00:46:08;;;;;;;4.40;1.57;;;24.90;99.90;;;;;;5055124;28;20266;-69
2021/04/02 00:48:38;;;;;;;4.93;1.50;;;25.10;99.90;;;;;;5055727;28;20581;-70
2021/04/02 00:51:13;;;;;;;5.13;1.73;;;25.20;99.90;;;;;;5054100;28;20237;-70
2021/04/02 00:53:43;;;;;;;6.27;1.80;;;25.30;99.90;;;;;;5031125;28;20520;-70
2021/04/02 00:56:13;;;;;;;5.10;1.67;;;25.40;99.90;;;;;;5048863;28;20183;-71
2021/04/02 00:58:41;;;;;;;5.73;1.70;;;25.20;99.90;;;;;;5050711;28;20192;-69
2021/04/02 01:01:10;;;;;;;3.40;1.50;;;25.00;99.90;;;;;;5047539;28;20180;-70
2021/04/02 01:03:39;;;;;;;6.60;1.70;;;24.80;99.90;;;;;;5047557;28;20550;-70
2021/04/02 01:06:11;;;;;;;7.00;1.90;;;24.70;99.90;;;;;;5043264;28;20780;-71
2021/04/02 01:08:38;;;;;;;7.33;1.70;;;25.00;99.90;;;;;;5052408;28;20270;-70
2021/04/02 01:11:11;;;;;;;5.93;1.50;;;25.00;99.90;;;;;;5052532;28;20195;-70
2021/04/02 01:13:49;;;;;;;4.30;1.53;;;25.10;99.90;;;;;;5042354;28;20463;-70
2021/04/02 01:16:19;;;;;;;8.77;2.33;;;24.90;99.90;;;;;;5046162;28;20207;-70
2021/04/02 01:18:49;;;;;;;9.07;2.43;;;24.90;99.90;;;;;;5043838;28;20214;-70
2021/04/02 01:21:33;;;;;;;5.10;1.50;;;24.70;99.90;;;;;;5048768;28;20188;-71
2021/04/02 01:24:35;;;;;;;3.97;1.70;;;24.50;99.90;;;;;;5049013;28;20191;-71
2021/04/02 01:27:30;;;;;;;4.50;1.53;;;24.70;99.90;;;;;;5052129;28;20270;-70
2021/04/02 01:30:02;;;;;;;24.97;3.67;;;25.10;99.90;;;;;;5049121;28;20638;-71
2021/04/02 01:32:36;;;;;;;7.70;1.70;;;25.40;99.90;;;;;;5046170;28;20287;-71
2021/04/02 01:35:26;;;;;;;3.90;1.50;;;25.50;99.90;;;;;;5053225;28;20184;-72
2021/04/02 01:38:01;;;;;;;3.10;1.80;;;25.40;99.90;;;;;;5049034;28;20668;-71
2021/04/02 01:40:32;;;;;;;3.07;1.63;;;25.40;99.90;;;;;;5044252;28;20188;-70
2021/04/02 01:43:05;;;;;;;5.37;1.50;;;25.70;99.80;;;;;;5050060;28;20212;-71
2021/04/02 01:45:34;;;;;;;4.30;1.67;;;25.70;99.60;;;;;;5039017;28;20227;-72
2021/04/02 01:48:03;;;;;;;5.27;1.60;;;25.90;98.80;;;;;;5047277;28;20207;-71
2021/04/02 01:50:31;;;;;;;4.70;2.17;;;26.40;98.40;;;;;;5050823;28;20711;-71
2021/04/02 01:53:04;;;;;;;3.60;1.33;;;26.40;98.00;;;;;;5049004;28;20184;-71
2021/04/02 01:55:31;;;;;;;6.57;2.03;;;26.50;97.50;;;;;;5046582;28;20180;-70
2021/04/02 01:58:05;;;;;;;5.43;2.33;;;26.50;97.10;;;;;;5051685;28;20180;-70
2021/04/02 02:00:38;;;;;;;6.97;2.23;;;26.40;97.50;;;;;;5041562;28;20246;-71
2021/04/02 02:03:17;;;;;;;6.83;1.57;;;26.00;98.00;;;;;;5042201;28;20212;-71
2021/04/02 02:05:47;;;;;;;4.27;1.70;;;25.70;98.20;;;;;;5040967;28;20703;-71
2021/04/02 02:08:18;;;;;;;7.47;2.20;;;25.70;99.10;;;;;;5039777;28;20630;-70
2021/04/02 02:10:47;;;;;;;4.73;1.80;;;26.00;99.30;;;;;;5040045;28;20208;-71
2021/04/02 02:13:16;;;;;;;4.90;1.90;;;26.40;99.10;;;;;;5051673;28;20229;-72
2021/04/02 02:15:44;;;;;;;3.63;1.67;;;26.50;98.30;;;;;;5053790;28;20172;-71
2021/04/02 02:18:15;;;;;;;5.83;1.97;;;26.60;98.40;;;;;;5053368;28;20258;-71
2021/04/02 02:20:45;;;;;;;4.90;2.17;;;26.70;98.30;;;;;;5053965;28;20172;-71
2021/04/02 02:23:12;;;;;;;8.03;2.27;;;26.60;98.20;;;;;;5052498;28;20183;-71
2021/04/02 02:25:39;;;;;;;8.07;2.20;;;26.80;98.20;;;;;;5053706;28;20216;-71
2021/04/02 02:28:07;;;;;;;9.10;2.30;;;27.10;97.90;;;;;;5053787;28;20164;-71
2021/04/02 02:30:36;;;;;;;8.10;2.63;;;27.00;97.30;;;;;;5053183;28;20184;-71
2021/04/02 02:33:04;;;;;;;5.27;1.80;;;26.80;97.60;;;;;;5052839;28;20617;-71
2021/04/02 02:35:31;;;;;;;5.47;2.20;;;26.80;97.70;;;;;;5052772;28;20180;-70
2021/04/02 02:38:01;;;;;;;5.30;2.00;;;27.00;97.40;;;;;;5045909;28;20172;-70
2021/04/02 02:40:32;;;;;;;5.77;2.13;;;27.50;97.20;;;;;;5046145;28;20188;-69
2021/04/02 02:43:01;;;;;;;7.40;1.90;;;27.60;96.30;;;;;;5043914;28;20180;-70
2021/04/02 02:45:30;;;;;;;9.30;1.97;;;27.80;96.10;;;;;;5052828;28;20224;-69
2021/04/02 02:47:57;;;;;;;5.97;1.93;;;27.80;95.70;;;;;;5053053;28;20221;-69
2021/04/02 02:50:29;;;;;;;7.33;2.20;;;28.10;95.80;;;;;;5035147;28;20191;-69
2021/04/02 02:52:58;;;;;;;5.50;1.80;;;27.90;95.60;;;;;;5052942;28;20267;-69
2021/04/02 02:55:27;;;;;;;3.33;1.77;;;28.10;95.20;;;;;;5053100;28;20188;-69
2021/04/02 02:57:56;;;;;;;6.77;1.87;;;28.50;93.90;;;;;;5051887;28;20556;-71
2021/04/02 03:00:32;;;;;;;2.63;1.60;;;28.50;93.50;;;;;;5052497;28;20538;-70
2021/04/02 03:03:02;;;;;;;5.37;1.50;;;28.80;92.00;;;;;;5052356;28;20182;-71
2021/04/02 03:05:30;;;;;;;2.93;1.87;;;28.50;92.10;;;;;;5033798;28;20204;-71
2021/04/02 03:08:02;;;;;;;2.37;1.47;;;28.60;92.30;;;;;;5042414;28;20204;-71
2021/04/02 03:10:32;;;;;;;4.13;1.63;;;29.10;90.60;;;;;;5033066;28;20173;-71
2021/04/02 03:13:01;;;;;;;5.47;1.53;;;28.20;91.20;;;;;;5043995;28;20233;-71
2021/04/02 03:15:29;;;;;;;5.10;1.60;;;28.90;91.20;;;;;;5050798;28;20180;-71
2021/04/02 03:18:11;;;;;;;4.03;1.60;;;28.30;91.70;;;;;;5051705;28;20207;-71
2021/04/02 03:20:40;;;;;;;3.43;1.60;;;28.50;91.10;;;;;;5052447;28;20261;-70
2021/04/02 03:23:10;;;;;;;5.13;1.90;;;28.30;90.90;;;;;;5052800;28;20213;-70
2021/04/02 03:25:40;;;;;;;4.53;1.47;;;27.50;91.80;;;;;;5050780;28;20211;-70
2021/04/02 03:28:08;;;;;;;5.70;1.23;;;28.10;92.20;;;;;;5052643;28;20183;-70
2021/04/02 03:30:37;;;;;;;3.77;1.70;;;28.30;91.40;;;;;;5049869;28;20203;-69
2021/04/02 03:33:16;;;;;;;4.60;1.80;;;28.20;91.70;;;;;;5030943;28;20181;-70
2021/04/02 03:35:45;;;;;;;3.53;1.50;;;28.90;91.50;;;;;;5040306;28;20171;-70
2021/04/02 03:38:16;;;;;;;6.10;1.50;;;28.90;90.70;;;;;;5052674;28;20187;-70
2021/04/02 03:40:48;;;;;;;3.67;1.30;;;28.60;90.50;;;;;;5052527;28;20180;-70
2021/04/02 03:43:16;;;;;;;2.90;1.40;;;28.40;90.20;;;;;;5052682;28;20356;-70
2021/04/02 03:45:48;;;;;;;3.37;1.47;;;28.40;90.40;;;;;;5049860;28;20235;-70
2021/04/02 03:48:18;;;;;;;2.20;1.03;;;28.90;90.40;;;;;;5048912;28;20676;-70
2021/04/02 03:50:51;;;;;;;2.97;1.30;;;29.50;88.80;;;;;;5039512;28;20183;-70
2021/04/02 03:53:38;;;;;;;7.70;1.60;;;29.40;88.20;;;;;;5049373;28;20548;-70
2021/04/02 03:56:09;;;;;;;4.30;1.20;;;28.80;89.00;;;;;;5046480;28;20187;-71
2021/04/02 03:58:43;;;;;;;1.93;1.20;;;28.60;90.00;;;;;;5044853;28;20673;-70
2021/04/02 04:01:13;;;;;;;2.53;1.00;;;28.90;89.70;;;;;;5046840;28;20183;-69
2021/04/02 04:03:43;;;;;;;6.78;1.30;;;29.00;90.10;;;;;;5051178;28;20254;-69
2021/04/02 04:06:19;;;;;;;5.70;1.20;;;29.00;89.50;;;;;;5034557;28;20212;-68
2021/04/02 04:08:52;;;;;;;3.80;1.37;;;28.60;89.40;;;;;;5051992;28;20180;-70
2021/04/02 04:11:24;;;;;;;5.07;1.30;;;28.60;90.20;;;;;;5045710;28;20189;-71
2021/04/02 04:13:53;;;;;;;4.40;1.23;;;29.50;90.20;;;;;;5037582;28;20194;-70
2021/04/02 04:16:24;;;;;;;8.57;1.30;;;29.60;90.00;;;;;;5039957;28;20187;-70
2021/04/02 04:18:57;;;;;;;4.97;1.50;;;29.10;90.40;;;;;;5050159;28;20278;-70
2021/04/02 04:21:27;;;;;;;2.97;1.20;;;29.10;90.20;;;;;;5051268;28;20206;-71
2021/04/02 04:23:54;;;;;;;2.67;1.10;;;28.90;90.60;;;;;;5051377;28;20195;-70
2021/04/02 04:26:25;;;;;;;2.87;1.43;;;29.40;90.50;;;;;;5047489;28;20222;-70
2021/04/02 04:28:54;;;;;;;3.77;1.17;;;28.60;90.90;;;;;;5050486;28;20172;-70
2021/04/02 04:31:24;;;;;;;2.43;1.00;;;28.70;91.90;;;;;;5050140;28;20184;-70
2021/04/02 04:33:54;;;;;;;3.17;1.33;;;28.40;92.30;;;;;;5040501;28;20239;-70
2021/04/02 04:36:23;;;;;;;4.90;1.23;;;28.70;91.30;;;;;;5037974;28;20225;-71
2021/04/02 04:38:54;;;;;;;3.07;0.90;;;28.90;91.80;;;;;;5054853;28;20172;-70
2021/04/02 04:41:26;;;;;;;5.07;1.43;;;29.50;91.30;;;;;;5055397;28;20257;-71
2021/04/02 04:43:56;;;;;;;3.60;1.40;;;29.40;92.00;;;;;;5055252;28;20172;-70
2021/04/02 04:46:24;;;;;;;1.80;0.90;;;29.10;93.00;;;;;;5054920;28;20238;-71
2021/04/02 04:48:52;;;;;;;3.97;1.30;;;29.30;93.10;;;;;;5055297;28;20180;-70
2021/04/02 04:51:22;;;;;;;4.10;1.17;;;29.30;93.00;;;;;;5037939;28;20677;-70
2021/04/02 04:53:54;;;;;;;7.35;1.48;;;29.30;93.70;;;;;;5046922;28;20176;-72
2021/04/02 04:56:26;;;;;;;4.63;0.93;;;29.20;93.70;;;;;;5054864;28;20254;-70
2021/04/02 04:58:56;;;;;;;3.28;1.23;;;28.80;94.40;;;;;;5042039;28;20180;-69
2021/04/02 05:01:26;;;;;;;4.67;0.90;;;28.70;95.10;;;;;;5037898;28;20630;-70
2021/04/02 05:03:55;;;;;;;6.20;0.80;;;28.40;95.10;;;;;;5052291;28;20176;-70
2021/04/02 05:06:24;;;;;;;2.90;0.97;;;28.30;95.70;;;;;;5054149;28;20219;-71
2021/04/02 05:08:54;;;;;;;6.20;0.87;;;28.00;96.20;;;;;;5041152;28;20650;-69
2021/04/02 05:11:25;;;;;;;5.77;1.00;;;28.20;95.80;;;;;;5052865;28;20187;-70
2021/04/02 05:13:54;;;;;;;2.43;0.90;;;28.10;96.10;;;;;;5054387;28;20279;-69
2021/04/02 05:16:23;;;;;;;2.83;0.90;;;27.70;96.60;;;;;;5053266;28;20207;-71
2021/04/02 05:18:52;;;;;;;3.77;1.00;;;27.90;96.60;;;;;;5054838;28;20184;-69
2021/04/02 05:21:22;;;;;;;2.17;0.90;;;28.40;95.60;;;;;;5053870;28;20182;-69
2021/04/02 05:23:49;;;;;;;2.10;0.93;;;28.30;95.30;;;;;;5055076;28;20253;-70
2021/04/02 05:26:17;;;;;;;4.20;1.30;;;29.10;94.60;;;;;;5054686;28;20211;-70
2021/04/02 05:28:44;;;;;;;4.10;1.10;;;29.10;94.40;;;;;;5054733;28;20266;-71
2021/04/02 05:31:12;;;;;;;3.73;1.20;;;29.40;93.70;;;;;;5034809;28;20266;-71
2021/04/02 05:33:39;;;;;;;7.23;1.13;;;28.90;93.60;;;;;;5035793;28;20255;-69
2021/04/02 05:36:07;;;;;;;5.60;1.15;;;28.50;94.90;;;;;;5052817;28;20187;-68
2021/04/02 05:38:34;;;;;;;5.13;1.47;;;28.40;94.90;;;;;;5055250;28;20513;-70
2021/04/02 05:41:12;;;;;;;3.80;1.02;;;28.30;94.70;;;;;;5055605;28;20230;-70
2021/04/02 05:44:11;;;;;;;3.67;0.90;;;29.10;94.00;;;;;;5055169;28;20176;-70
2021/04/02 05:46:41;;;;;;;2.60;0.75;;;29.10;93.80;;;;;;5032064;28;20219;-69
2021/04/02 05:49:08;;;;;;;5.22;1.38;;;29.40;93.70;;;;;;5051628;28;20188;-70
2021/04/02 05:51:36;;;;;;;4.68;1.10;;;29.50;93.20;;;;;;5053879;28;20267;-70
2021/04/02 05:54:07;;;;;;;2.75;0.90;;;29.40;92.80;;;;;;5053570;28;20595;-70
2021/04/02 05:56:35;;;;;;;3.70;0.95;;;29.10;93.50;;;;;;5051271;28;20176;-70
2021/04/02 05:59:03;;;;;;;2.93;1.20;;;29.20;93.70;;;;;;5043893;28;20212;-70
2021/04/02 06:01:31;;;;;;;3.83;0.80;;;29.40;93.80;;;;;;5053919;28;20164;-70
2021/04/02 06:03:59;;;;;;;3.33;0.98;;;30.10;92.80;;;;;;5049452;28;20202;-70
2021/04/02 06:06:27;;;;;;;2.58;0.70;;;29.70;92.50;;;;;;5054744;28;20290;-69
2021/04/02 06:08:55;;;;;;;4.30;1.55;;;29.00;92.70;;;;;;5051612;28;20245;-70
2021/04/02 06:11:23;;;;;;;4.20;2.08;;;28.90;93.50;;;;;;5046113;28;20654;-70
2021/04/02 06:13:50;;;;;;;4.87;2.17;;;28.50;94.10;;;;;;5049415;28;20199;-70
2021/04/02 06:16:17;;;;;;;5.93;4.03;;;28.20;94.80;;;;;;5044806;28;20184;-70
2021/04/02 06:18:45;;;;;;;3.70;1.45;;;28.20;94.40;;;;;;5053557;28;20639;-71
2021/04/02 06:21:14;;;;;;;3.80;1.47;;;28.10;94.40;;;;;;5040391;28;20536;-70
2021/04/02 06:23:41;;;;;;;5.57;3.53;;;28.00;94.30;;;;;;5047699;28;20184;-70
2021/04/02 06:26:11;;;;;;;6.13;3.20;;;28.30;94.00;;;;;;5046096;28;20285;-70
2021/04/02 06:28:41;;;;;;;3.60;1.30;;;28.20;93.70;;;;;;5044604;28;20181;-71
2021/04/02 06:31:16;;;;;;;1.67;0.77;;;28.30;93.80;;;;;;5046424;28;20188;-71
2021/04/02 06:33:52;;;;;;;2.65;1.17;;;28.50;93.90;;;;;;5046027;28;20211;-70
2021/04/02 06:36:28;;;;;;;1.83;0.77;;;28.60;93.30;;;;;;5053027;28;20202;-69
2021/04/02 06:39:02;;;;;;;5.23;3.20;;;28.30;93.90;;;;;;5053276;28;20230;-70
2021/04/02 06:41:31;;;;;;;4.70;3.30;;;27.60;94.50;;;;;;5053120;28;20184;-69
2021/04/02 06:44:00;;;;;;;2.77;1.30;;;27.60;95.00;;;;;;5048194;28;20188;-69
2021/04/02 06:46:34;;;;;;;2.40;1.00;;;27.80;94.90;;;;;;5052114;28;20277;-69
2021/04/02 06:49:19;;;;;;;9.77;1.20;;;28.10;94.80;;;;;;5047218;28;20685;-69
2021/04/02 06:51:49;;;;;;;4.57;1.97;;;28.30;94.80;;;;;;5049671;28;20184;-69
2021/04/02 06:54:19;;;;;;;6.20;3.83;;;28.10;94.50;;;;;;5050343;28;20177;-71
2021/04/02 06:57:03;;;;;;;5.20;1.97;;;27.90;94.80;;;;;;5051162;28;20194;-70
2021/04/02 06:59:33;;;;;;;5.23;1.20;;;27.60;94.70;;;;;;5050810;28;20249;-70
2021/04/02 07:02:03;;;;;;;3.87;1.10;;;27.80;94.80;;;;;;5051617;28;20543;-70
2021/04/02 07:04:32;;;;;;;1.20;0.93;;;27.20;95.10;;;;;;5051330;28;20192;-71
2021/04/02 07:07:04;;;;;;;3.20;0.80;;;27.10;95.80;;;;;;5046596;28;20572;-70
2021/04/02 07:09:38;;;;;;;3.97;1.10;;;27.00;95.70;;;;;;5046759;28;20211;-71
2021/04/02 07:12:09;;;;;;;2.53;1.07;;;27.10;96.00;;;;;;5052822;28;20180;-70
2021/04/02 07:14:37;;;;;;;6.80;1.50;;;26.90;96.00;;;;;;5040902;28;20200;-70
2021/04/02 07:17:05;;;;;;;3.90;1.50;;;26.70;96.60;;;;;;5034769;28;20176;-70
2021/04/02 07:19:34;;;;;;;6.00;4.20;;;26.50;97.00;;;;;;5052819;28;20183;-70
2021/04/02 07:22:03;;;;;;;6.63;1.77;;;26.20;97.90;;;;;;5052649;28;20206;-70
2021/04/02 07:24:31;;;;;;;2.20;1.10;;;25.80;97.60;;;;;;5044045;28;20190;-69
2021/04/02 07:26:58;;;;;;;6.03;1.23;;;25.40;98.70;;;;;;5052532;28;20673;-70
2021/04/02 07:29:27;;;;;;;3.67;1.27;;;25.30;99.50;;;;;;5052388;28;20306;-69
2021/04/02 07:31:55;;;;;;;3.07;1.17;;;24.90;99.90;;;;;;5051467;28;20266;-69
2021/04/02 07:34:23;;;;;;;4.17;1.00;;;24.70;99.90;;;;;;5050806;28;20233;-69
2021/04/02 07:36:51;;;;;;;4.17;1.30;;;24.60;99.90;;;;;;5051296;28;20229;-69
2021/04/02 07:39:20;;;;;;;3.17;1.10;;;24.50;99.90;;;;;;5051953;28;20183;-70
2021/04/02 07:41:50;;;;;;;12.77;6.10;;;24.20;99.90;;;;;;5051857;28;20179;-69
2021/04/02 07:44:19;;;;;;;4.20;2.50;;;24.10;99.90;;;;;;5051902;28;20693;-69
2021/04/02 07:47:08;;;;;;;5.43;1.70;;;23.90;99.90;;;;;;5043074;28;20726;-70
2021/04/02 07:49:54;;;;;;;8.00;1.30;;;23.80;99.90;;;;;;5052311;28;20223;-70
2021/04/02 07:52:37;;;;;;;2.17;1.13;;;23.60;99.90;;;;;;5050111;28;20270;-70
2021/04/02 07:55:18;;;;;;;1.97;0.90;;;23.40;99.90;;;;;;5033636;28;20183;-71
2021/04/02 07:58:02;;;;;;;4.60;1.40;;;23.40;99.90;;;;;;5052077;28;20180;-70
2021/04/02 08:00:37;;;;;;;2.97;1.40;;;23.30;99.90;;;;;;5049854;28;20538;-70
2021/04/02 08:03:18;;;;;;;5.27;1.40;;;23.10;99.90;;;;;;5050615;28;20186;-71
2021/04/02 08:06:05;;;;;;;3.90;1.30;;;23.00;99.90;;;;;;5043895;28;20254;-70
2021/04/02 08:08:44;;;;;;;8.20;4.73;;;22.90;99.90;;;;;;5048754;28;20237;-69
2021/04/02 08:11:25;;;;;;;8.40;5.97;;;22.90;99.90;;;;;;5047340;28;20184;-70
2021/04/02 08:14:00;;;;;;;6.40;2.10;;;22.80;99.90;;;;;;5043646;28;20188;-71
2021/04/02 08:16:48;;;;;;;9.03;2.50;;;22.60;99.90;;;;;;5055549;28;20179;-71
2021/04/02 08:19:38;;;;;;;5.23;1.37;;;22.60;99.90;;;;;;5053588;28;20192;-71
2021/04/02 08:22:12;;;;;;;3.17;1.50;;;22.50;99.90;;;;;;5050143;28;20195;-71
2021/04/02 08:24:49;;;;;;;4.53;2.13;;;22.50;99.90;;;;;;5051927;28;20200;-71
2021/04/02 08:27:18;;;;;;;3.97;2.13;;;22.50;99.90;;;;;;5054513;28;20188;-71
2021/04/02 08:30:01;;;;;;;5.47;1.53;;;22.40;99.90;;;;;;5054076;28;20188;-71
2021/04/02 08:32:31;;;;;;;6.77;2.00;;;22.30;99.90;;;;;;5054825;28;20184;-70
2021/04/02 08:34:59;;;;;;;7.00;2.87;;;22.30;99.90;;;;;;5052575;28;20583;-70
2021/04/02 08:37:29;;;;;;;6.50;3.63;;;22.20;99.90;;;;;;5055551;28;20267;-71
2021/04/02 08:40:01;;;;;;;9.23;5.13;;;22.20;99.90;;;;;;5051107;28;20195;-70
2021/04/02 08:42:32;;;;;;;4.90;1.30;;;22.20;99.90;;;;;;5052546;28;20191;-70
2021/04/02 08:45:06;;;;;;;5.23;1.70;;;22.20;99.90;;;;;;5051005;28;20690;-70
2021/04/02 08:47:37;;;;;;;3.27;1.37;;;22.20;99.90;;;;;;5054838;28;20183;-71
2021/04/02 08:50:05;;;;;;;3.77;1.43;;;22.10;99.90;;;;;;5055465;28;20179;-70
2021/04/02 08:52:33;;;;;;;2.57;1.10;;;22.10;99.90;;;;;;5055084;28;20195;-70
2021/04/02 08:55:04;;;;;;;5.20;1.53;;;22.10;99.90;;;;;;5054260;28;20183;-70
2021/04/02 08:57:33;;;;;;;6.13;1.47;;;22.10;99.90;;;;;;5048698;28;20239;-71
2021/04/02 09:00:04;;;;;;;4.47;1.33;;;22.10;99.90;;;;;;5049723;28;20192;-71
2021/04/02 09:02:32;;;;;;;3.07;1.20;;;22.00;99.90;;;;;;5054671;28;20190;-71
2021/04/02 09:05:04;;;;;;;4.57;1.40;;;22.00;99.90;;;;;;5042588;28;20280;-70
2021/04/02 09:07:39;;;;;;;6.13;2.13;;;21.90;99.90;;;;;;5052657;28;20184;-71
2021/04/02 09:10:26;;;;;;;6.27;1.50;;;21.90;99.90;;;;;;5043912;28;20195;-71
2021/04/02 09:12:56;;;;;;;5.57;1.40;;;21.80;99.90;;;;;;5045199;28;20169;-71
2021/04/02 09:15:31;;;;;;;5.73;1.20;;;21.80;99.90;;;;;;5048774;28;20211;-70
2021/04/02 09:18:28;;;;;;;4.80;1.20;;;21.80;99.90;;;;;;5054813;28;20269;-71
2021/04/02 09:20:59;;;;;;;4.57;1.63;;;21.70;99.90;;;;;;5054129;28;20191;-71
2021/04/02 09:23:27;;;;;;;3.67;1.77;;;21.70;99.90;;;;;;5054019;28;20175;-69
2021/04/02 09:25:56;;;;;;;2.60;1.60;;;21.70;99.90;;;;;;5053636;28;20215;-70
2021/04/02 09:28:25;;;;;;;7.23;1.87;;;21.70;99.90;;;;;;5048117;28;20720;-69
2021/04/02 09:31:18;;;;;;;5.30;1.73;;;21.70;99.90;;;;;;5052657;28;20190;-70
2021/04/02 09:33:48;;;;;;;5.53;1.33;;;21.60;99.90;;;;;;5051568;28;20230;-70
2021/04/02 09:36:16;;;;;;;4.40;1.53;;;21.70;99.90;;;;;;5051991;28;20907;-70
2021/04/02 09:38:44;;;;;;;4.60;1.43;;;21.60;99.90;;;;;;5042159;28;20176;-70
2021/04/02 09:41:13;;;;;;;4.40;1.70;;;21.60;99.90;;;;;;5045428;28;20263;-71
2021/04/02 09:43:46;;;;;;;6.93;2.53;;;21.60;99.90;;;;;;5053940;28;20184;-70
2021/04/02 09:46:28;;;;;;;8.13;4.67;;;21.60;99.90;;;;;;5049294;28;20289;-71
2021/04/02 09:49:10;;;;;;;6.37;3.03;;;21.50;99.90;;;;;;5052360;28;20420;-70
2021/04/02 09:51:41;;;;;;;5.50;1.77;;;21.50;99.90;;;;;;5053369;28;20255;-71
2021/04/02 09:54:10;;;;;;;3.70;1.70;;;21.50;99.90;;;;;;5053005;28;20176;-70
2021/04/02 09:56:39;;;;;;;5.50;1.30;;;21.50;99.90;;;;;;5053489;28;20658;-70
2021/04/02 09:59:09;;;;;;;4.50;1.50;;;21.40;99.90;;;;;;5041433;28;20184;-72
2021/04/02 10:01:39;;;;;;;4.10;1.40;;;21.40;99.90;;;;;;5048913;28;20637;-71
2021/04/02 10:04:08;;;;;;;3.80;1.40;;;21.40;99.90;;;;;;5054147;28;20176;-70
2021/04/02 10:06:35;;;;;;;4.17;1.77;;;21.40;99.90;;;;;;5050415;28;20207;-71
2021/04/02 10:09:04;;;;;;;2.67;1.60;;;21.40;99.90;;;;;;5034243;28;20184;-70
2021/04/02 10:11:33;;;;;;;2.20;1.50;;;21.30;99.90;;;;;;5053654;28;20180;-71
2021/04/02 10:14:01;;;;;;;19.80;15.20;;;21.30;99.90;;;;;;5053943;28;20695;-70
2021/04/02 10:16:29;;;;;;;6.33;4.10;;;21.20;99.90;;;;;;5053156;28;20171;-71
2021/04/02 10:18:56;;;;;;;8.20;5.73;;;21.20;99.90;;;;;;5053568;28;20537;-71
2021/04/02 10:21:25;;;;;;;5.37;3.63;;;21.20;99.90;;;;;;5053942;28;20713;-71
2021/04/02 10:23:53;;;;;;;4.87;1.97;;;21.20;99.90;;;;;;5048426;28;20638;-70
2021/04/02 10:26:21;;;;;;;5.97;1.83;;;21.20;99.90;;;;;;5049157;28;20208;-71
2021/04/02 10:28:49;;;;;;;1.97;1.50;;;21.20;99.90;;;;;;5054080;28;20222;-71
2021/04/02 10:31:16;;;;;;;4.47;1.80;;;21.10;99.90;;;;;;5051911;28;20607;-71
2021/04/02 10:33:44;;;;;;;2.13;1.63;;;21.00;99.90;;;;;;5036657;28;20737;-71
2021/04/02 10:36:13;;;;;;;2.03;1.50;;;21.00;99.90;;;;;;5054009;28;20181;-71
2021/04/02 10:38:41;;;;;;;2.73;1.53;;;21.00;99.90;;;;;;5053447;28;20180;-71
2021/04/02 10:41:09;;;;;;;3.83;1.40;;;20.80;99.90;;;;;;5054094;28;20266;-70
2021/04/02 10:43:36;;;;;;;3.90;1.40;;;20.80;99.90;;;;;;5054191;28;20176;-70
2021/04/02 10:46:04;;;;;;;2.10;1.50;;;20.80;99.90;;;;;;5053721;28;20240;-70
2021/04/02 10:48:32;;;;;;;7.47;2.13;;;20.70;99.90;;;;;;5049909;28;20184;-71
2021/04/02 10:51:00;;;;;;;4.23;1.60;;;20.70;99.90;;;;;;5043070;28;20545;-71
2021/04/02 10:53:27;;;;;;;8.23;4.10;;;20.60;99.90;;;;;;5054139;28;20535;-72
2021/04/02 10:56:00;;;;;;;5.13;1.93;;;20.60;99.90;;;;;;5039280;28;20190;-72
2021/04/02 10:58:28;;;;;;;4.30;1.70;;;20.50;99.90;;;;;;5051535;28;20187;-70
2021/04/02 11:00:56;;;;;;;6.37;1.63;;;20.50;99.90;;;;;;5044159;28;20188;-71
2021/04/02 11:03:24;;;;;;;5.67;1.20;;;20.50;99.90;;;;;;5047934;28;20595;-70
2021/04/02 11:05:52;;;;;;;3.07;1.30;;;20.50;99.90;;;;;;5053379;28;20574;-70
2021/04/02 11:08:19;;;;;;;4.17;2.10;;;20.40;99.90;;;;;;5053046;28;20172;-71
2021/04/02 11:10:46;;;;;;;5.03;1.50;;;20.40;99.90;;;;;;5053312;28;20184;-71
2021/04/02 11:13:14;;;;;;;3.10;1.50;;;20.40;99.90;;;;;;5053345;28;20176;-70
2021/04/02 11:15:41;;;;;;;2.70;1.30;;;20.40;99.90;;;;;;5052963;28;20198;-71
2021/04/02 11:18:12;;;;;;;5.80;1.40;;;20.30;99.90;;;;;;5051708;28;20192;-70
2021/04/02 11:20:39;;;;;;;2.87;1.13;;;20.30;99.90;;;;;;5050899;28;20180;-71
2021/04/02 11:23:07;;;;;;;1.70;1.00;;;20.30;99.90;;;;;;5052592;28;20180;-71
2021/04/02 11:25:35;;;;;;;5.07;2.50;;;20.30;99.90;;;;;;5052217;28;20570;-71
2021/04/02 11:28:03;;;;;;;3.77;1.50;;;20.30;99.90;;;;;;5051722;28;20177;-70
2021/04/02 11:30:30;;;;;;;2.50;1.70;;;20.20;99.90;;;;;;5041188;28;20181;-70
2021/04/02 11:32:57;;;;;;;2.90;1.50;;;20.20;99.90;;;;;;5052153;28;20191;-71
2021/04/02 11:35:25;;;;;;;3.90;1.40;;;20.20;99.90;;;;;;5049873;28;20259;-70
2021/04/02 11:37:53;;;;;;;2.83;1.03;;;20.10;99.90;;;;;;5052319;28;20266;-71
2021/04/02 11:40:20;;;;;;;4.73;1.60;;;20.10;99.90;;;;;;5041944;28;20171;-71
2021/04/02 11:42:48;;;;;;;5.27;1.70;;;20.10;99.90;;;;;;5051823;28;20203;-71
2021/04/02 11:45:16;;;;;;;2.73;1.20;;;20.00;99.90;;;;;;5051795;28;20219;-71
2021/04/02 11:47:43;;;;;;;2.73;1.43;;;20.00;99.90;;;;;;5045805;28;20188;-71
2021/04/02 11:50:11;;;;;;;4.20;1.30;;;20.00;99.90;;;;;;5051651;28;20547;-70
2021/04/02 11:52:39;;;;;;;5.03;3.13;;;20.00;99.90;;;;;;5051144;28;20546;-71
2021/04/02 11:55:09;;;;;;;4.00;2.10;;;19.90;99.90;;;;;;5050701;28;20207;-71
2021/04/02 11:57:36;;;;;;;3.10;1.50;;;19.90;99.90;;;;;;5039716;28;20291;-70
2021/04/02 12:00:09;;;;;;;2.67;1.27;;;19.90;99.90;;;;;;5052176;28;20229;-71
2021/04/02 12:02:37;;;;;;;3.50;1.30;;;19.90;99.90;;;;;;5051929;28;20207;-70
2021/04/02 12:05:05;;;;;;;7.27;1.73;;;19.80;99.90;;;;;;5052039;28;20257;-70
2021/04/02 12:07:33;;;;;;;2.27;1.20;;;19.80;99.90;;;;;;5052220;28;20218;-71
2021/04/02 12:10:00;;;;;;;2.43;1.33;;;19.70;99.90;;;;;;5056470;28;20671;-70
2021/04/02 12:12:27;;;;;;;4.13;1.30;;;19.70;99.90;;;;;;5038075;28;20645;-71
2021/04/02 12:14:55;;;;;;;2.83;1.30;;;19.70;99.90;;;;;;5044012;28;20245;-70
2021/04/02 12:17:22;;;;;;;2.50;1.10;;;19.70;99.90;;;;;;5038306;28;20173;-70
2021/04/02 12:19:49;;;;;;;3.13;1.20;;;19.70;99.90;;;;;;5051891;28;20184;-71
2021/04/02 12:22:17;;;;;;;3.63;1.20;;;19.70;99.90;;;;;;5051858;28;20164;-71
2021/04/02 12:24:44;;;;;;;3.20;1.40;;;19.70;99.90;;;;;;5051717;28;20277;-71
2021/04/02 12:27:11;;;;;;;5.50;2.07;;;19.60;99.90;;;;;;5050231;28;20226;-70
2021/04/02 12:29:39;;;;;;;8.13;4.93;;;19.60;99.90;;;;;;5052143;28;20634;-72
2021/04/02 12:32:07;;;;;;;7.40;3.00;;;19.60;99.90;;;;;;5051440;28;20184;-70
2021/04/02 12:34:35;;;;;;;4.87;1.73;;;19.60;99.90;;;;;;5051750;28;20176;-71
2021/04/02 12:37:02;;;;;;;9.13;2.20;;;19.50;99.90;;;;;;5051869;28;20194;-72
2021/04/02 12:39:30;;;;;;;8.50;2.33;;;19.50;99.90;;;;;;5044387;28;20181;-70
2021/04/02 12:41:57;;;;;;;6.83;2.57;;;19.40;99.90;;;;;;5051353;28;20180;-71
2021/04/02 12:44:25;;;;;;;7.47;2.30;;;19.40;99.90;;;;;;5035453;28;20189;-71
2021/04/02 12:46:52;;;;;;;7.23;2.40;;;19.40;99.90;;;;;;5049464;28;20230;-70
2021/04/02 12:49:19;;;;;;;4.57;2.37;;;19.40;99.90;;;;;;5049366;28;20593;-70
2021/04/02 12:51:47;;;;;;;4.77;2.73;;;19.40;99.90;;;;;;5051751;28;20172;-71
2021/04/02 12:54:17;;;;;;;5.20;2.33;;;19.30;99.90;;;;;;5051252;28;20180;-70
2021/04/02 12:56:45;;;;;;;6.17;2.47;;;19.30;99.90;;;;;;5051566;28;20590;-71
2021/04/02 12:59:12;;;;;;;3.40;2.53;;;19.20;99.90;;;;;;5054507;28;20191;-70
2021/04/02 13:01:40;;;;;;;8.67;2.70;;;19.20;99.90;;;;;;5054905;28;20180;-70
2021/04/02 13:04:08;;;;;;;6.53;2.83;;;19.10;99.90;;;;;;5023379;28;20184;-70